Time;durP1;ratioP1;P1;durP2;ratioP2;P2;SDS_P1;SDS_P2;PMS_P1;PMS_P2;Temp;Humidity;BMP_temperature;BMP_pressure;BME280_temperature;BME280_humidity;BME280_pressure;Samples;Min_cycle;Max_cycle;Signal;HPM_P1;HPM_P2
2021/06/26 00:00:33;;;;;;;;;;;15.80;99.90;;;;;;5071767;28;20007;-71
2021/06/26 00:02:58;;;;;;;;;;;15.70;99.90;;;;;;5071683;28;19943;-71
2021/06/26 00:05:24;;;;;;;;;;;15.60;99.90;;;;;;5071542;28;20293;-71
2021/06/26 00:07:49;;;;;;;;;;;15.60;99.90;;;;;;5063527;28;20112;-71
2021/06/26 00:10:15;;;;;;;;;;;15.60;99.90;;;;;;5071417;28;19912;-75
2021/06/26 00:12:40;;;;;;;;;;;15.60;99.90;;;;;;5071555;28;20325;-70
2021/06/26 00:15:07;;;;;;;;;;;15.70;99.90;;;;;;5071684;28;19958;-70
2021/06/26 00:17:33;;;;;;;;;;;15.70;99.90;;;;;;5071331;28;20323;-74
2021/06/26 00:19:58;;;;;;;;;;;15.70;99.90;;;;;;5091468;28;20049;-70
2021/06/26 00:22:24;;;;;;;;;;;15.70;99.90;;;;;;5091756;28;19908;-71
2021/06/26 00:24:49;;;;;;;;;;;15.60;99.90;;;;;;5091480;28;20281;-71
2021/06/26 00:27:14;;;;;;;;;;;15.60;99.90;;;;;;5090928;28;19909;-70
2021/06/26 00:29:40;;;;;;;;;;;15.70;99.90;;;;;;5091328;28;19916;-71
2021/06/26 00:32:06;;;;;;;;;;;15.70;99.90;;;;;;5091273;28;19912;-73
2021/06/26 00:34:32;;;;;;;;;;;15.70;99.90;;;;;;5091426;28;19908;-74
2021/06/26 00:36:57;;;;;;;;;;;15.70;99.90;;;;;;5090603;28;20018;-71
2021/06/26 00:39:23;;;;;;;;;;;15.80;99.90;;;;;;5091350;28;19908;-71
2021/06/26 00:41:48;;;;;;;;;;;15.80;99.90;;;;;;5091028;28;19912;-70
2021/06/26 00:44:14;;;;;;;;;;;15.80;99.90;;;;;;5091290;28;19912;-72
2021/06/26 00:46:39;;;;;;;;;;;15.80;99.90;;;;;;5085950;28;20246;-71
2021/06/26 00:49:05;;;;;;;;;;;15.80;99.90;;;;;;5070777;28;19974;-71
2021/06/26 00:51:30;;;;;;;;;;;15.80;99.90;;;;;;5070573;28;20369;-71
2021/06/26 00:53:56;;;;;;;;;;;15.80;99.90;;;;;;5064956;28;20266;-73
2021/06/26 00:56:22;;;;;;;;;;;15.80;99.90;;;;;;5070033;28;19908;-71
2021/06/26 00:58:48;;;;;;;;;;;15.80;99.90;;;;;;5070400;28;19912;-70
2021/06/26 01:01:13;;;;;;;;;;;15.80;99.90;;;;;;5071006;28;19909;-71
2021/06/26 01:03:39;;;;;;;;;;;15.80;99.90;;;;;;5070602;28;19915;-71
2021/06/26 01:06:04;;;;;;;;;;;15.80;99.90;;;;;;5069916;28;19931;-74
2021/06/26 01:08:30;;;;;;;;;;;15.80;99.90;;;;;;5071310;28;19919;-71
2021/06/26 01:10:56;;;;;;;;;;;15.80;99.90;;;;;;5070772;28;19913;-71
2021/06/26 01:13:22;;;;;;;;;;;15.70;99.90;;;;;;5067503;28;19909;-71
2021/06/26 01:15:49;;;;;;;;;;;15.70;99.90;;;;;;5068747;28;19962;-71
2021/06/26 01:18:15;;;;;;;;;;;15.70;99.90;;;;;;5070104;28;19909;-71
2021/06/26 01:20:40;;;;;;;;;;;15.70;99.90;;;;;;5070716;28;19939;-72
2021/06/26 01:23:06;;;;;;;;;;;15.70;99.90;;;;;;5070722;28;19912;-71
2021/06/26 01:25:32;;;;;;;;;;;15.70;99.90;;;;;;5070296;28;19909;-71
2021/06/26 01:27:58;;;;;;;;;;;15.70;99.90;;;;;;5070066;28;19935;-71
2021/06/26 01:30:27;;;;;;;;;;;15.70;99.90;;;;;;5070636;28;19916;-71
2021/06/26 01:32:53;;;;;;;;;;;15.70;99.90;;;;;;5070334;28;20297;-73
2021/06/26 01:35:18;;;;;;;;;;;15.70;99.90;;;;;;5070612;28;19909;-71
2021/06/26 01:37:44;;;;;;;;;;;15.70;99.90;;;;;;5069717;28;19914;-72
2021/06/26 01:40:14;;;;;;;;;;;15.70;99.90;;;;;;5070617;28;20364;-71
2021/06/26 01:42:40;;;;;;;;;;;15.60;99.90;;;;;;5070508;28;19921;-71
2021/06/26 01:45:06;;;;;;;;;;;15.60;99.90;;;;;;5070502;28;20003;-72
2021/06/26 01:47:31;;;;;;;;;;;15.60;99.90;;;;;;5069088;28;19915;-75
2021/06/26 01:49:56;;;;;;;;;;;15.60;99.90;;;;;;5070312;28;20436;-70
2021/06/26 01:52:22;;;;;;;;;;;15.60;99.90;;;;;;5070827;28;19908;-72
2021/06/26 01:54:48;;;;;;;;;;;15.60;99.90;;;;;;5070299;28;20419;-71
2021/06/26 01:57:13;;;;;;;;;;;15.50;99.90;;;;;;5069731;28;20289;-71
2021/06/26 01:59:39;;;;;;;;;;;15.50;99.90;;;;;;5070489;28;20365;-71
2021/06/26 02:02:05;;;;;;;;;;;15.50;99.90;;;;;;5069995;28;20385;-71
2021/06/26 02:04:30;;;;;;;;;;;15.40;99.90;;;;;;5068958;28;20393;-71
2021/06/26 02:06:56;;;;;;;;;;;15.40;99.90;;;;;;5069221;28;19958;-71
2021/06/26 02:09:21;;;;;;;;;;;15.50;99.90;;;;;;5070144;28;19914;-70
2021/06/26 02:11:47;;;;;;;;;;;15.50;99.90;;;;;;5073417;28;20351;-70
2021/06/26 02:14:12;;;;;;;;;;;15.50;99.90;;;;;;5073891;28;19908;-71
2021/06/26 02:16:38;;;;;;;;;;;15.50;99.90;;;;;;5071970;28;19908;-72
2021/06/26 02:19:04;;;;;;;;;;;15.50;99.90;;;;;;5073726;28;19909;-73
2021/06/26 02:21:29;;;;;;;;;;;15.50;99.90;;;;;;5072382;28;19928;-71
2021/06/26 02:23:55;;;;;;;;;;;15.60;99.90;;;;;;5073665;28;20039;-71
2021/06/26 02:26:20;;;;;;;;;;;15.60;99.90;;;;;;5072744;28;19912;-71
2021/06/26 02:28:46;;;;;;;;;;;15.50;99.90;;;;;;5073322;28;19912;-70
2021/06/26 02:31:12;;;;;;;;;;;15.60;99.90;;;;;;5073337;28;19922;-70
2021/06/26 02:33:37;;;;;;;;;;;15.50;99.90;;;;;;5071857;28;19951;-71
2021/06/26 02:36:03;;;;;;;;;;;15.60;99.90;;;;;;5071262;28;19998;-72
2021/06/26 02:38:28;;;;;;;;;;;15.50;99.90;;;;;;5073263;28;19909;-73
2021/06/26 02:40:54;;;;;;;;;;;15.60;99.90;;;;;;5073293;28;19909;-71
2021/06/26 02:43:19;;;;;;;;;;;15.60;99.90;;;;;;5073426;28;19920;-71
2021/06/26 02:45:46;;;;;;;;;;;15.50;99.90;;;;;;5071951;28;20008;-71
2021/06/26 02:48:12;;;;;;;;;;;15.50;99.90;;;;;;5071447;28;20422;-71
2021/06/26 02:50:37;;;;;;;;;;;15.50;99.90;;;;;;5071735;28;19966;-71
2021/06/26 02:53:03;;;;;;;;;;;15.50;99.90;;;;;;5072947;28;20320;-74
2021/06/26 02:55:28;;;;;;;;;;;15.40;99.90;;;;;;5072919;28;20416;-71
2021/06/26 02:57:53;;;;;;;;;;;15.40;99.90;;;;;;5071134;28;19908;-71
2021/06/26 03:00:19;;;;;;;;;;;15.30;99.90;;;;;;5072989;28;20354;-72
2021/06/26 03:02:45;;;;;;;;;;;15.30;99.90;;;;;;5072603;28;19915;-73
2021/06/26 03:05:10;;;;;;;;;;;15.20;99.90;;;;;;5072843;28;20323;-71
2021/06/26 03:07:36;;;;;;;;;;;15.20;99.90;;;;;;5071821;28;19915;-70
2021/06/26 03:10:02;;;;;;;;;;;15.20;99.90;;;;;;5071656;28;19912;-71
2021/06/26 03:12:28;;;;;;;;;;;15.10;99.90;;;;;;5072734;28;20003;-71
2021/06/26 03:14:53;;;;;;;;;;;15.00;99.90;;;;;;5072334;28;19999;-72
2021/06/26 03:17:19;;;;;;;;;;;15.00;99.90;;;;;;5070479;28;19919;-71
2021/06/26 03:19:44;;;;;;;;;;;14.90;99.90;;;;;;5071629;28;19959;-71
2021/06/26 03:22:10;;;;;;;;;;;14.70;99.90;;;;;;5071011;28;20125;-71
2021/06/26 03:24:35;;;;;;;;;;;14.70;99.90;;;;;;5071473;28;19915;-71
2021/06/26 03:27:01;;;;;;;;;;;14.70;99.90;;;;;;5070843;28;19936;-71
2021/06/26 03:29:26;;;;;;;;;;;14.50;99.90;;;;;;5071814;28;19909;-71
2021/06/26 03:31:52;;;;;;;;;;;14.40;99.90;;;;;;5071964;28;19916;-74
2021/06/26 03:34:17;;;;;;;;;;;14.40;99.90;;;;;;5072281;28;19915;-71
2021/06/26 03:36:43;;;;;;;;;;;14.30;99.90;;;;;;5071289;28;19954;-71
2021/06/26 03:39:09;;;;;;;;;;;14.30;99.90;;;;;;5072116;28;19908;-71
2021/06/26 03:41:34;;;;;;;;;;;14.20;99.90;;;;;;5071999;28;20327;-71
2021/06/26 03:44:01;;;;;;;;;;;14.20;99.90;;;;;;5072002;28;20266;-71
2021/06/26 03:46:27;;;;;;;;;;;14.10;99.90;;;;;;5071211;28;19916;-72
2021/06/26 03:48:52;;;;;;;;;;;13.90;99.90;;;;;;5071589;28;20293;-72
2021/06/26 03:51:18;;;;;;;;;;;13.80;99.90;;;;;;5071711;28;20369;-73
2021/06/26 03:53:46;;;;;;;;;;;13.70;99.90;;;;;;5072066;28;19909;-71
2021/06/26 03:56:11;;;;;;;;;;;13.70;99.90;;;;;;5071157;28;19962;-71
2021/06/26 03:58:37;;;;;;;;;;;13.70;99.90;;;;;;5070574;28;19909;-71
2021/06/26 04:01:02;;;;;;;;;;;13.70;99.90;;;;;;5072092;28;20426;-71
2021/06/26 04:03:28;;;;;;;;;;;13.80;99.90;;;;;;5071750;28;19912;-71
2021/06/26 04:05:53;;;;;;;;;;;13.80;99.90;;;;;;5070861;28;19908;-71
2021/06/26 04:08:19;;;;;;;;;;;13.80;99.90;;;;;;5071799;28;19954;-73
2021/06/26 04:10:44;;;;;;;;;;;13.70;99.90;;;;;;5071782;28;20001;-70
2021/06/26 04:13:10;;;;;;;;;;;13.70;99.90;;;;;;5071625;28;19999;-71
2021/06/26 04:15:35;;;;;;;;;;;13.60;99.90;;;;;;5073722;28;19912;-71
2021/06/26 04:18:01;;;;;;;;;;;13.70;99.90;;;;;;5091145;28;20448;-72
2021/06/26 04:20:26;;;;;;;;;;;13.70;99.90;;;;;;5091770;28;19908;-72
2021/06/26 04:22:52;;;;;;;;;;;13.70;99.90;;;;;;5091818;28;19956;-70
2021/06/26 04:25:18;;;;;;;;;;;13.80;99.90;;;;;;5091718;28;19915;-73
2021/06/26 04:27:44;;;;;;;;;;;13.80;99.90;;;;;;5090573;28;19913;-71
2021/06/26 04:30:10;;;;;;;;;;;13.90;99.90;;;;;;5091615;28;20007;-70
2021/06/26 04:32:37;;;;;;;;;;;14.00;99.90;;;;;;5091495;28;19966;-70
2021/06/26 04:35:03;;;;;;;;;;;14.00;99.90;;;;;;5090732;28;20219;-70
2021/06/26 04:37:29;;;;;;;;;;;14.10;99.90;;;;;;5090895;28;19908;-71
2021/06/26 04:39:54;;;;;;;;;;;14.20;99.90;;;;;;5091438;28;20544;-71
2021/06/26 04:42:20;;;;;;;;;;;14.20;99.90;;;;;;5091386;28;20018;-71
2021/06/26 04:44:45;;;;;;;;;;;14.30;99.90;;;;;;5086931;28;19908;-74
2021/06/26 04:47:11;;;;;;;;;;;14.40;99.90;;;;;;5077984;28;19912;-71
2021/06/26 04:49:37;;;;;;;;;;;14.60;99.90;;;;;;5091004;28;19915;-71
2021/06/26 04:52:03;;;;;;;;;;;14.70;99.90;;;;;;5091433;28;20277;-71
2021/06/26 04:54:28;;;;;;;;;;;14.80;99.90;;;;;;5091448;28;20372;-71
2021/06/26 04:56:54;;;;;;;;;;;14.80;99.90;;;;;;5090349;28;19951;-74
2021/06/26 04:59:19;;;;;;;;;;;14.90;99.90;;;;;;5091281;28;20318;-71
2021/06/26 05:01:45;;;;;;;;;;;15.00;99.90;;;;;;5091080;28;19914;-71
2021/06/26 05:04:10;;;;;;;;;;;15.00;99.90;;;;;;5090983;28;19935;-71
2021/06/26 05:06:35;;;;;;;;;;;15.10;99.90;;;;;;5090663;28;19915;-71
2021/06/26 05:09:01;;;;;;;;;;;15.10;99.90;;;;;;5091685;28;20480;-71
2021/06/26 05:11:26;;;;;;;;;;;15.30;99.90;;;;;;5091211;28;19916;-71
2021/06/26 05:13:52;;;;;;;;;;;15.40;99.90;;;;;;5091216;28;20348;-73
2021/06/26 05:16:18;;;;;;;;;;;15.50;99.90;;;;;;5071607;28;19912;-71
2021/06/26 05:18:43;;;;;;;;;;;15.60;99.90;;;;;;5068800;28;19908;-71
2021/06/26 05:21:08;;;;;;;;;;;15.70;99.90;;;;;;5070462;28;19908;-71
2021/06/26 05:23:34;;;;;;;;;;;15.80;99.90;;;;;;5070865;28;19916;-71
2021/06/26 05:25:59;;;;;;;;;;;16.00;99.90;;;;;;5068396;28;20612;-71
2021/06/26 05:28:25;;;;;;;;;;;16.20;99.90;;;;;;5070769;28;19955;-71
2021/06/26 05:30:51;;;;;;;;;;;16.30;99.90;;;;;;5070797;28;19959;-71
2021/06/26 05:33:16;;;;;;;;;;;16.40;99.90;;;;;;5069281;28;19999;-71
2021/06/26 05:35:43;;;;;;;;;;;16.50;99.90;;;;;;5070008;28;20148;-71
2021/06/26 05:38:09;;;;;;;;;;;16.50;99.90;;;;;;5070814;28;20579;-71
2021/06/26 05:40:34;;;;;;;;;;;16.60;99.90;;;;;;5069525;28;19908;-71
2021/06/26 05:43:00;;;;;;;;;;;16.70;99.90;;;;;;5070672;28;19996;-71
2021/06/26 05:45:25;;;;;;;;;;;16.80;99.90;;;;;;5071657;28;19934;-71
2021/06/26 05:47:51;;;;;;;;;;;17.00;99.90;;;;;;5073262;28;20250;-73
2021/06/26 05:50:16;;;;;;;;;;;17.20;99.90;;;;;;5074440;28;19924;-71
2021/06/26 05:52:49;;;;;;;;;;;17.30;99.90;;;;;;5074666;28;19913;-71
2021/06/26 05:55:15;;;;;;;;;;;17.50;99.90;;;;;;5074541;28;20487;-71
2021/06/26 05:57:41;;;;;;;;;;;17.80;99.90;;;;;;5073805;28;20246;-71
2021/06/26 06:00:07;;;;;;;;;;;18.10;99.90;;;;;;5074480;28;19908;-71
2021/06/26 06:02:32;;;;;;;;;;;18.20;99.90;;;;;;5072746;28;20447;-71
2021/06/26 06:04:58;;;;;;;;;;;18.30;99.90;;;;;;5074747;28;19912;-71
2021/06/26 06:07:23;;;;;;;;;;;18.50;99.90;;;;;;5073659;28;20342;-73
2021/06/26 06:09:49;;;;;;;;;;;18.60;99.90;;;;;;5074170;28;19913;-71
2021/06/26 06:12:14;;;;;;;;;;;18.90;99.90;;;;;;5058430;28;20298;-71
2021/06/26 06:14:40;;;;;;;;;;;19.20;99.90;;;;;;5055246;28;19963;-72
2021/06/26 06:17:05;;;;;;;;;;;19.50;99.90;;;;;;5056186;28;20247;-71
2021/06/26 06:19:31;;;;;;;;;;;19.60;99.90;;;;;;5070169;28;20144;-71
2021/06/26 06:21:56;;;;;;;;;;;19.60;99.90;;;;;;5062065;28;19913;-72
2021/06/26 06:24:22;;;;;;;;;;;19.70;99.90;;;;;;5052821;28;19909;-73
2021/06/26 06:26:47;;;;;;;;;;;19.70;99.90;;;;;;5051998;28;20366;-72
2021/06/26 06:29:13;;;;;;;;;;;19.70;99.90;;;;;;5053829;28;19909;-72
2021/06/26 06:31:38;;;;;;;;;;;19.80;99.90;;;;;;5053480;28;19965;-72
2021/06/26 06:34:03;;;;;;;;;;;20.20;99.90;;;;;;5053552;28;20273;-72
2021/06/26 06:36:31;;;;;;;;;;;20.60;99.90;;;;;;5053008;28;20153;-73
2021/06/26 06:38:56;;;;;;;;;;;21.20;99.90;;;;;;5052424;28;19916;-71
2021/06/26 06:41:22;;;;;;;;;;;21.80;99.90;;;;;;5053592;28;20285;-70
2021/06/26 06:43:47;;;;;;;;;;;22.10;99.90;;;;;;5053364;28;19916;-70
2021/06/26 06:46:13;;;;;;;;;;;22.10;99.90;;;;;;5068708;28;19909;-70
2021/06/26 06:48:38;;;;;;;;;;;22.20;99.90;;;;;;5093175;28;20281;-71
2021/06/26 06:51:04;;;;;;;;;;;22.50;99.90;;;;;;5093437;28;19916;-71
2021/06/26 06:53:29;;;;;;;;;;;23.10;99.90;;;;;;5094073;28;20371;-70
2021/06/26 06:55:58;;;;;;;;;;;23.40;99.90;;;;;;5092752;28;19998;-72
2021/06/26 06:58:24;;;;;;;;;;;23.60;99.90;;;;;;5092701;28;19975;-72
2021/06/26 07:00:49;;;;;;;;;;;23.60;99.90;;;;;;5093816;28;19999;-72
2021/06/26 07:03:15;;;;;;;;;;;23.90;99.90;;;;;;5093238;28;19914;-72
2021/06/26 07:05:40;;;;;;;;;;;24.10;99.90;;;;;;5092569;28;19912;-71
2021/06/26 07:08:06;;;;;;;;;;;24.20;99.90;;;;;;5093196;28;20285;-70
2021/06/26 07:10:31;;;;;;;;;;;24.10;99.90;;;;;;5093312;28;20376;-71
2021/06/26 07:12:57;;;;;;;;;;;24.10;99.90;;;;;;5093598;28;19908;-70
2021/06/26 07:15:22;;;;;;;;;;;24.50;99.90;;;;;;5092579;28;20361;-71
2021/06/26 07:17:48;;;;;;;;;;;24.90;99.90;;;;;;5090542;28;19961;-71
2021/06/26 07:20:13;;;;;;;;;;;25.40;99.90;;;;;;5091154;28;19908;-71
2021/06/26 07:22:39;;;;;;;;;;;25.20;99.90;;;;;;5091348;28;19908;-75
2021/06/26 07:25:05;;;;;;;;;;;25.30;99.90;;;;;;5090295;28;19922;-71
2021/06/26 07:27:30;;;;;;;;;;;25.50;99.90;;;;;;5090474;28;19908;-71
2021/06/26 07:29:56;;;;;;;;;;;25.50;99.90;;;;;;5090904;28;19957;-71
2021/06/26 07:32:21;;;;;;;;;;;25.80;99.90;;;;;;5092278;28;19912;-72
2021/06/26 07:34:47;;;;;;;;;;;25.60;99.90;;;;;;5092886;28;19934;-71
2021/06/26 07:37:12;;;;;;;;;;;25.20;99.90;;;;;;5092038;28;19958;-71
2021/06/26 07:39:38;;;;;;;;;;;25.30;99.90;;;;;;5092639;28;19947;-72
2021/06/26 07:42:03;;;;;;;;;;;25.00;99.90;;;;;;5091410;28;19911;-75
2021/06/26 07:44:29;;;;;;;;;;;24.70;99.90;;;;;;5090433;28;19908;-71
2021/06/26 07:46:55;;;;;;;;;;;24.40;99.90;;;;;;5071406;28;19939;-71
2021/06/26 07:49:20;;;;;;;;;;;24.10;99.90;;;;;;5072062;28;19912;-72
2021/06/26 07:51:46;;;;;;;;;;;24.00;99.90;;;;;;5072293;28;19916;-74
2021/06/26 07:54:11;;;;;;;;;;;24.00;99.90;;;;;;5070970;28;19912;-72
2021/06/26 07:56:37;;;;;;;;;;;24.00;99.90;;;;;;5071445;28;19915;-71
2021/06/26 07:59:03;;;;;;;;;;;24.10;99.90;;;;;;5072132;28;19912;-72
2021/06/26 08:01:28;;;;;;;;;;;24.50;99.90;;;;;;5071988;28;19913;-72
2021/06/26 08:03:54;;;;;;;;;;;24.90;99.90;;;;;;5071859;28;19992;-71
2021/06/26 08:06:19;;;;;;;;;;;24.90;99.90;;;;;;5071315;28;20171;-71
2021/06/26 08:08:44;;;;;;;;;;;24.50;99.90;;;;;;5071807;28;19909;-72
2021/06/26 08:11:10;;;;;;;;;;;24.40;99.90;;;;;;5071891;28;19923;-75
2021/06/26 08:13:35;;;;;;;;;;;24.50;99.90;;;;;;5071777;28;19913;-71
2021/06/26 08:16:01;;;;;;;;;;;24.50;99.90;;;;;;5070779;28;19999;-71
2021/06/26 08:18:27;;;;;;;;;;;24.80;99.90;;;;;;5071445;28;19962;-72
2021/06/26 08:20:52;;;;;;;;;;;25.10;99.90;;;;;;5071832;28;20286;-73
2021/06/26 08:23:18;;;;;;;;;;;25.40;99.90;;;;;;5071620;28;19908;-71
2021/06/26 08:25:43;;;;;;;;;;;25.70;99.90;;;;;;5070773;28;20018;-72
2021/06/26 08:28:09;;;;;;;;;;;25.50;99.90;;;;;;5071522;28;20396;-72
2021/06/26 08:30:34;;;;;;;;;;;25.60;99.90;;;;;;5071892;28;19920;-71
2021/06/26 08:33:00;;;;;;;;;;;25.20;99.90;;;;;;5071528;28;19909;-71
2021/06/26 08:35:25;;;;;;;;;;;25.10;99.90;;;;;;5071411;28;19915;-71
2021/06/26 08:37:51;;;;;;;;;;;24.90;99.90;;;;;;5070933;28;20365;-73
2021/06/26 08:40:17;;;;;;;;;;;24.90;99.90;;;;;;5070189;28;19910;-71
2021/06/26 08:42:43;;;;;;;;;;;24.80;99.90;;;;;;5071426;28;19931;-71
2021/06/26 08:45:15;;;;;;;;;;;24.80;99.90;;;;;;5071154;28;19913;-71
2021/06/26 08:47:41;;;;;;;;;;;25.00;99.90;;;;;;5070120;28;20335;-73
2021/06/26 08:50:07;;;;;;;;;;;25.30;99.90;;;;;;5071274;28;19966;-71
2021/06/26 08:52:33;;;;;;;;;;;25.30;99.60;;;;;;5071411;28;19912;-71
2021/06/26 08:54:58;;;;;;;;;;;25.00;99.90;;;;;;5071354;28;19912;-71
2021/06/26 08:57:32;;;;;;;;;;;24.80;99.90;;;;;;5070377;28;19915;-71
2021/06/26 08:59:58;;;;;;;;;;;24.70;99.90;;;;;;5071157;28;19944;-74
2021/06/26 09:02:24;;;;;;;;;;;24.70;99.90;;;;;;5069872;28;19909;-71
2021/06/26 09:04:50;;;;;;;;;;;24.70;99.90;;;;;;5070930;28;19916;-71
2021/06/26 09:07:25;;;;;;;;;;;24.80;99.90;;;;;;5070368;28;19909;-74
2021/06/26 09:09:50;;;;;;;;;;;24.90;99.90;;;;;;5070837;28;19931;-71
2021/06/26 09:12:19;;;;;;;;;;;24.90;99.90;;;;;;5071093;28;20381;-71
2021/06/26 09:14:44;;;;;;;;;;;24.90;99.90;;;;;;5070856;28;19909;-71
2021/06/26 09:17:12;;;;;;;;;;;25.00;99.70;;;;;;5062507;28;19909;-71
2021/06/26 09:19:38;;;;;;;;;;;25.10;99.90;;;;;;5070473;28;19912;-73
2021/06/26 09:22:09;;;;;;;;;;;25.40;99.90;;;;;;5075495;28;19912;-73
2021/06/26 09:24:36;;;;;;;;;;;25.40;99.90;;;;;;5074943;28;19916;-71
2021/06/26 09:27:02;;;;;;;;;;;25.50;99.80;;;;;;5074310;28;19915;-73
2021/06/26 09:29:27;;;;;;;;;;;25.90;99.40;;;;;;5074743;28;20281;-71
2021/06/26 09:31:53;;;;;;;;;;;26.10;99.10;;;;;;5074626;28;19913;-72
2021/06/26 09:34:19;;;;;;;;;;;26.30;99.60;;;;;;5074948;28;19913;-72
2021/06/26 09:36:44;;;;;;;;;;;26.20;99.20;;;;;;5072508;28;19909;-72
2021/06/26 09:39:11;;;;;;;;;;;26.20;99.90;;;;;;5074700;28;20427;-76
2021/06/26 09:41:39;;;;;;;;;;;26.30;98.20;;;;;;5074887;28;19908;-71
2021/06/26 09:44:11;;;;;;;;;;;26.50;99.80;;;;;;5074651;28;19939;-74
2021/06/26 09:46:47;;;;;;;;;;;26.60;99.70;;;;;;5072143;28;19991;-72
2021/06/26 09:49:13;;;;;;;;;;;27.00;98.70;;;;;;5070333;28;19908;-73
2021/06/26 09:51:38;;;;;;;;;;;27.30;96.80;;;;;;5074085;28;19966;-74
2021/06/26 09:54:08;;;;;;;;;;;27.80;96.80;;;;;;5074576;28;19909;-71
2021/06/26 09:56:37;;;;;;;;;;;28.30;97.90;;;;;;5073706;28;19908;-72
2021/06/26 09:59:02;;;;;;;;;;;28.60;96.40;;;;;;5074430;28;19931;-73
2021/06/26 10:01:28;;;;;;;;;;;28.70;94.20;;;;;;5074459;28;20366;-72
2021/06/26 10:03:54;;;;;;;;;;;28.10;95.20;;;;;;5074243;28;19950;-71
2021/06/26 10:06:20;;;;;;;;;;;27.80;94.20;;;;;;5073192;28;19919;-72
2021/06/26 10:08:46;;;;;;;;;;;27.70;94.70;;;;;;5074184;28;19909;-72
2021/06/26 10:11:12;;;;;;;;;;;27.70;96.30;;;;;;5074354;28;20050;-72
2021/06/26 10:13:38;;;;;;;;;;;27.80;96.40;;;;;;5074135;28;19910;-72
2021/06/26 10:16:04;;;;;;;;;;;27.80;93.30;;;;;;5073480;28;19915;-71
2021/06/26 10:18:30;;;;;;;;;;;28.20;95.60;;;;;;5065997;28;19995;-71
2021/06/26 10:20:56;;;;;;;;;;;28.20;93.80;;;;;;5073788;28;19915;-72
2021/06/26 10:23:22;;;;;;;;;;;28.00;94.20;;;;;;5074174;28;19982;-71
2021/06/26 10:25:48;;;;;;;;;;;27.90;94.10;;;;;;5073065;28;20357;-71
2021/06/26 10:28:17;;;;;;;;;;;27.60;93.60;;;;;;5073919;28;19947;-74
2021/06/26 10:30:55;;;;;;;;;;;27.60;95.00;;;;;;5073840;28;20054;-71
2021/06/26 10:33:24;;;;;;;;;;;27.90;97.70;;;;;;5072505;28;19957;-71
2021/06/26 10:35:51;;;;;;;;;;;28.50;97.30;;;;;;5072775;28;20006;-71
2021/06/26 10:38:17;;;;;;;;;;;29.10;94.10;;;;;;5073791;28;19914;-72
2021/06/26 10:40:49;;;;;;;;;;;29.50;93.30;;;;;;5073728;28;19931;-73
2021/06/26 10:43:17;;;;;;;;;;;29.70;91.70;;;;;;5065141;28;19920;-72
2021/06/26 10:45:43;;;;;;;;;;;29.80;91.20;;;;;;5072642;28;20332;-72
2021/06/26 10:48:26;;;;;;;;;;;29.70;94.60;;;;;;5073207;28;19917;-73
2021/06/26 10:50:53;;;;;;;;;;;29.70;90.90;;;;;;5073260;28;19958;-72
2021/06/26 10:53:38;;;;;;;;;;;29.00;90.90;;;;;;5073453;28;20007;-71
2021/06/26 10:56:11;;;;;;;;;;;28.70;93.20;;;;;;5072431;28;20416;-73
2021/06/26 10:58:40;;;;;;;;;;;28.80;94.10;;;;;;5073168;28;20376;-72
2021/06/26 11:01:26;;;;;;;;;;;28.90;91.80;;;;;;5073396;28;19955;-71
2021/06/26 11:04:03;;;;;;;;;;;28.60;90.90;;;;;;5072742;28;19951;-71
2021/06/26 11:06:30;;;;;;;;;;;28.30;91.20;;;;;;5072462;28;20278;-74
2021/06/26 11:09:07;;;;;;;;;;;28.50;93.70;;;;;;5072288;28;19931;-71
2021/06/26 11:11:39;;;;;;;;;;;28.50;92.00;;;;;;5069074;28;19912;-72
2021/06/26 11:14:04;;;;;;;;;;;28.40;92.20;;;;;;5065509;28;20335;-73
2021/06/26 11:16:29;;;;;;;;;;;28.20;91.80;;;;;;5071120;28;19908;-73
2021/06/26 11:18:55;;;;;;;;;;;27.60;91.50;;;;;;5072479;28;20377;-72
2021/06/26 11:21:20;;;;;;;;;;;27.30;91.00;;;;;;5072832;28;19912;-74
2021/06/26 11:23:49;;;;;;;;;;;27.20;92.80;;;;;;5072842;28;19909;-71
2021/06/26 11:26:15;;;;;;;;;;;27.40;92.00;;;;;;5071983;28;19959;-71
2021/06/26 11:28:42;;;;;;;;;;;27.10;92.50;;;;;;5072739;28;20339;-74
2021/06/26 11:31:08;;;;;;;;;;;26.60;92.20;;;;;;5071618;28;19919;-71
2021/06/26 11:33:35;;;;;;;;;;;26.60;93.10;;;;;;5072331;28;19909;-71
2021/06/26 11:36:01;;;;;;;;;;;26.60;94.70;;;;;;5070374;28;19912;-71
2021/06/26 11:38:26;;;;;;;;;;;26.90;92.70;;;;;;5072518;28;19916;-71
2021/06/26 11:41:05;;;;;;;;;;;27.40;95.10;;;;;;5072453;28;19912;-71
2021/06/26 11:43:31;;;;;;;;;;;27.80;93.40;;;;;;5064440;28;19956;-73
2021/06/26 11:45:57;;;;;;;;;;;28.30;92.40;;;;;;5070130;28;19997;-75
2021/06/26 11:48:23;;;;;;;;;;;28.50;92.40;;;;;;5064394;28;19916;-71
2021/06/26 11:50:48;;;;;;;;;;;28.40;91.50;;;;;;5072059;28;20366;-71
2021/06/26 11:53:14;;;;;;;;;;;28.10;90.10;;;;;;5072271;28;19913;-71
2021/06/26 11:56:04;;;;;;;;;;;27.60;91.10;;;;;;5071410;28;19909;-72
2021/06/26 11:58:35;;;;;;;;;;;27.40;92.30;;;;;;5071900;28;19909;-74
2021/06/26 12:01:01;;;;;;;;;;;27.20;91.20;;;;;;5071989;28;20380;-71
2021/06/26 12:03:29;;;;;;;;;;;27.10;93.00;;;;;;5071675;28;19916;-71
2021/06/26 12:06:02;;;;;;;;;;;27.00;91.40;;;;;;5071116;28;19935;-71
2021/06/26 12:08:28;;;;;;;;;;;26.80;91.50;;;;;;5072056;28;19940;-72
2021/06/26 12:10:54;;;;;;;;;;;26.70;93.80;;;;;;5070569;28;19913;-73
2021/06/26 12:13:20;;;;;;;;;;;27.00;92.10;;;;;;5071752;28;19953;-71
2021/06/26 12:15:45;;;;;;;;;;;27.40;93.10;;;;;;5070882;28;19919;-71
2021/06/26 12:18:11;;;;;;;;;;;27.80;90.90;;;;;;5067375;28;20280;-71
2021/06/26 12:20:38;;;;;;;;;;;28.20;91.10;;;;;;5069461;28;20012;-72
2021/06/26 12:23:07;;;;;;;;;;;28.30;90.80;;;;;;5067536;28;20397;-71
2021/06/26 12:25:37;;;;;;;;;;;28.30;91.60;;;;;;5071277;28;19962;-71
2021/06/26 12:28:03;;;;;;;;;;;28.30;91.00;;;;;;5071147;28;19913;-71
2021/06/26 12:30:29;;;;;;;;;;;28.40;90.50;;;;;;5071791;28;19935;-72
2021/06/26 12:33:02;;;;;;;;;;;28.50;90.20;;;;;;5071288;28;19912;-74
2021/06/26 12:35:28;;;;;;;;;;;28.70;84.60;;;;;;5069887;28;19932;-72
2021/06/26 12:37:54;;;;;;;;;;;29.00;90.30;;;;;;5070836;28;19909;-72
2021/06/26 12:40:23;;;;;;;;;;;29.40;90.90;;;;;;5070480;28;19916;-73
2021/06/26 12:42:56;;;;;;;;;;;29.80;91.50;;;;;;5063296;28;20435;-73
2021/06/26 12:45:24;;;;;;;;;;;30.10;83.70;;;;;;5071552;28;20360;-72
2021/06/26 12:47:56;;;;;;;;;;;30.20;87.30;;;;;;5066355;28;19916;-72
2021/06/26 12:50:22;;;;;;;;;;;30.30;84.80;;;;;;5058672;28;20290;-72
2021/06/26 12:52:50;;;;;;;;;;;30.30;83.00;;;;;;5066241;28;19920;-72
2021/06/26 12:55:17;;;;;;;;;;;30.20;83.60;;;;;;5067031;28;20285;-72
2021/06/26 12:57:42;;;;;;;;;;;30.00;84.00;;;;;;5067487;28;19912;-72
2021/06/26 13:00:18;;;;;;;;;;;29.90;84.80;;;;;;5071397;28;19915;-72
2021/06/26 13:02:45;;;;;;;;;;;29.80;80.70;;;;;;5070917;28;19908;-72
2021/06/26 13:05:19;;;;;;;;;;;29.70;82.40;;;;;;5060197;28;19912;-72
2021/06/26 13:07:45;;;;;;;;;;;29.30;86.30;;;;;;5050265;28;19923;-73
2021/06/26 13:10:10;;;;;;;;;;;28.90;86.00;;;;;;5051088;28;20007;-72
2021/06/26 13:12:36;;;;;;;;;;;28.60;85.90;;;;;;5051198;28;19962;-72
2021/06/26 13:15:03;;;;;;;;;;;28.30;85.00;;;;;;5051115;28;20390;-73
2021/06/26 13:17:29;;;;;;;;;;;28.20;89.50;;;;;;5051881;28;19940;-72
2021/06/26 13:19:56;;;;;;;;;;;27.90;85.00;;;;;;5069315;28;19973;-73
2021/06/26 13:22:22;;;;;;;;;;;28.00;88.50;;;;;;5071171;28;19912;-73
2021/06/26 13:24:48;;;;;;;;;;;27.80;90.30;;;;;;5069865;28;19953;-74
2021/06/26 13:27:14;;;;;;;;;;;28.10;93.30;;;;;;5070266;28;19909;-71
2021/06/26 13:29:41;;;;;;;;;;;28.40;87.70;;;;;;5071226;28;19908;-71
2021/06/26 13:32:06;;;;;;;;;;;28.60;88.30;;;;;;5053285;28;19938;-71
2021/06/26 13:34:32;;;;;;;;;;;28.80;86.50;;;;;;5049352;28;20374;-72
2021/06/26 13:36:57;;;;;;;;;;;29.00;85.70;;;;;;5056959;28;19917;-73
2021/06/26 13:39:23;;;;;;;;;;;29.00;87.50;;;;;;5077851;28;19908;-72
2021/06/26 13:41:49;;;;;;;;;;;29.10;83.90;;;;;;5090419;28;19947;-72
2021/06/26 13:44:15;;;;;;;;;;;29.30;84.60;;;;;;5050724;28;19959;-72
2021/06/26 13:46:40;;;;;;;;;;;29.40;84.90;;;;;;5049708;28;19909;-72
2021/06/26 13:49:06;;;;;;;;;;;29.60;86.20;;;;;;5050387;28;19909;-75
2021/06/26 13:51:32;;;;;;;;;;;29.90;86.20;;;;;;5050760;28;20375;-73
2021/06/26 13:53:57;;;;;;;;;;;30.30;82.40;;;;;;5050673;28;20271;-71
2021/06/26 13:56:23;;;;;;;;;;;30.50;89.30;;;;;;5049798;28;19908;-71
2021/06/26 13:58:50;;;;;;;;;;;30.40;81.60;;;;;;5049307;28;19909;-71
2021/06/26 14:01:16;;;;;;;;;;;30.30;81.40;;;;;;5050628;28;19935;-71
2021/06/26 14:03:41;;;;;;;;;;;30.20;84.80;;;;;;5049113;28;19917;-72
2021/06/26 14:06:07;;;;;;;;;;;29.70;86.10;;;;;;5050454;28;19976;-71
2021/06/26 14:08:33;;;;;;;;;;;29.20;84.20;;;;;;5070082;28;20257;-72
2021/06/26 14:10:58;;;;;;;;;;;28.50;82.70;;;;;;5073949;28;19917;-72